createdAt,value
2022-10-20T00:01:56.755Z,2.50
2022-10-20T00:04:23.835Z,2.63
2022-10-20T00:06:50.963Z,2.47
2022-10-20T00:09:24.603Z,2.40
2022-10-20T00:11:51.694Z,2.80
2022-10-20T00:14:25.677Z,2.60
2022-10-20T00:17:06.616Z,2.50
2022-10-20T00:19:40.690Z,2.63
2022-10-20T00:22:07.846Z,2.72
2022-10-20T00:24:34.951Z,2.40
2022-10-20T00:27:08.745Z,2.65
2022-10-20T00:29:36.000Z,3.10
2022-10-20T00:32:09.837Z,2.70
2022-10-20T00:34:37.026Z,2.53
2022-10-20T00:37:04.182Z,2.75
2022-10-20T00:39:37.654Z,2.85
2022-10-20T00:42:05.683Z,2.67
2022-10-20T00:44:55.738Z,2.75
2022-10-20T00:47:25.650Z,2.65
2022-10-20T00:49:59.687Z,2.80
2022-10-20T00:52:37.952Z,2.95
2022-10-20T00:55:12.734Z,2.63
2022-10-20T00:57:39.986Z,2.97
2022-10-20T01:00:08.881Z,3.08
2022-10-20T01:02:42.734Z,3.65
2022-10-20T01:05:09.939Z,3.90
2022-10-20T01:07:43.783Z,3.83
2022-10-20T01:10:12.605Z,3.47
2022-10-20T01:12:42.450Z,3.25
2022-10-20T01:15:25.662Z,3.00
2022-10-20T01:18:07.623Z,3.20
2022-10-20T01:20:53.890Z,3.33
2022-10-20T01:23:23.974Z,3.60
2022-10-20T01:25:51.294Z,3.20
2022-10-20T01:28:24.654Z,3.90
2022-10-20T01:31:02.584Z,3.70
2022-10-20T01:33:49.378Z,3.50
2022-10-20T01:36:25.585Z,4.22
2022-10-20T01:38:56.212Z,4.30
2022-10-20T01:41:43.618Z,4.10
2022-10-20T01:44:12.457Z,3.80
2022-10-20T01:46:47.728Z,3.60
2022-10-20T01:49:15.465Z,3.92
2022-10-20T01:54:30.692Z,3.75
2022-10-20T01:57:10.170Z,3.65
2022-10-20T01:59:58.689Z,4.07
2022-10-20T02:02:40.976Z,4.28
2022-10-20T02:05:20.709Z,4.20
2022-10-20T02:07:47.925Z,4.03
2022-10-20T02:10:36.663Z,3.47
2022-10-20T02:13:06.957Z,4.40
2022-10-20T02:15:43.807Z,4.05
2022-10-20T02:18:22.278Z,4.32
2022-10-20T02:20:57.680Z,4.32
2022-10-20T02:23:24.837Z,4.25
2022-10-20T02:26:00.817Z,4.32
2022-10-20T02:28:38.094Z,4.25
2022-10-20T02:31:11.887Z,3.87
2022-10-20T02:33:39.785Z,4.47
2022-10-20T02:36:07.309Z,3.85
2022-10-20T02:38:40.720Z,4.20
2022-10-20T02:41:08.032Z,4.32
2022-10-20T02:43:41.823Z,4.20
2022-10-20T02:46:09.102Z,3.85
2022-10-20T02:48:38.263Z,3.47
2022-10-20T02:51:12.805Z,3.75
2022-10-20T02:53:40.022Z,3.80
2022-10-20T02:56:07.271Z,3.70
2022-10-20T02:58:40.664Z,3.67
2022-10-20T03:01:08.002Z,3.80
2022-10-20T03:03:41.794Z,3.42
2022-10-20T03:06:10.237Z,3.78
2022-10-20T03:08:37.360Z,3.13
2022-10-20T03:11:11.817Z,4.22
2022-10-20T03:13:39.088Z,3.63
2022-10-20T03:16:06.324Z,3.33
2022-10-20T03:18:40.689Z,3.35
2022-10-20T03:21:07.895Z,3.78
2022-10-20T03:23:41.726Z,3.40
2022-10-20T03:26:10.818Z,3.20
2022-10-20T03:28:38.147Z,2.65
2022-10-20T03:31:11.817Z,2.97
2022-10-20T03:33:38.978Z,3.45
2022-10-20T03:36:06.273Z,3.10
2022-10-20T03:38:39.699Z,2.63
2022-10-20T03:41:07.010Z,3.35
2022-10-20T03:43:40.706Z,3.70
2022-10-20T03:46:10.414Z,3.00
2022-10-20T03:48:37.980Z,3.60
2022-10-20T03:53:38.896Z,3.45
2022-10-20T03:56:07.066Z,3.55
2022-10-20T03:58:40.699Z,3.40
2022-10-20T04:01:09.412Z,3.10
2022-10-20T04:03:42.822Z,3.33
2022-10-20T04:06:09.981Z,4.10
2022-10-20T04:08:37.123Z,3.60
2022-10-20T04:11:10.929Z,4.00
2022-10-20T04:13:38.128Z,3.17
2022-10-20T04:16:05.344Z,3.85
2022-10-20T04:18:39.733Z,3.53
2022-10-20T04:21:13.690Z,4.35
2022-10-20T04:23:47.823Z,4.50
2022-10-20T04:26:16.358Z,4.20
2022-10-20T04:28:43.527Z,4.63
2022-10-20T04:31:17.773Z,4.22
2022-10-20T04:33:45.020Z,4.97
2022-10-20T04:36:20.830Z,4.10
2022-10-20T04:38:48.088Z,3.92
2022-10-20T04:41:15.219Z,3.60
2022-10-20T04:43:48.733Z,4.18
2022-10-20T04:46:15.937Z,4.32
2022-10-20T04:48:44.425Z,4.93
2022-10-20T04:51:19.636Z,4.63
2022-10-20T04:53:46.920Z,4.38
2022-10-20T04:56:24.668Z,4.60
2022-10-20T04:58:52.602Z,4.40
2022-10-20T05:01:20.028Z,4.65
2022-10-20T05:03:54.710Z,4.57
2022-10-20T05:06:23.288Z,4.18
2022-10-20T05:08:58.884Z,4.53
2022-10-20T05:11:34.773Z,4.43
2022-10-20T05:14:08.880Z,4.38
2022-10-20T05:16:36.014Z,4.68
2022-10-20T05:19:16.850Z,5.32
2022-10-20T05:21:44.006Z,3.90
2022-10-20T05:24:18.257Z,5.07
2022-10-20T05:26:54.737Z,4.95
2022-10-20T05:29:21.973Z,4.57
2022-10-20T05:31:49.106Z,4.97
2022-10-20T05:34:22.838Z,4.72
2022-10-20T05:36:50.041Z,5.80
2022-10-20T05:39:17.110Z,4.72
2022-10-20T05:41:50.734Z,5.63
2022-10-20T05:44:17.907Z,4.70
2022-10-20T05:46:51.834Z,5.38
2022-10-20T05:49:19.050Z,7.40
2022-10-20T05:51:47.120Z,5.40
2022-10-20T05:54:21.833Z,4.88
2022-10-20T05:56:49.002Z,6.07
2022-10-20T05:59:16.207Z,5.45
2022-10-20T06:01:55.764Z,7.32
2022-10-20T06:04:24.026Z,4.95
2022-10-20T06:07:01.700Z,5.70
2022-10-20T06:09:28.878Z,5.53
2022-10-20T06:12:02.897Z,5.65
2022-10-20T06:14:30.129Z,4.78
2022-10-20T06:16:57.693Z,5.78
2022-10-20T06:22:06.869Z,4.78
2022-10-20T06:24:40.830Z,5.28
2022-10-20T06:27:08.414Z,5.97
2022-10-20T06:32:08.774Z,6.10
2022-10-20T06:34:35.952Z,4.72
2022-10-20T06:37:09.774Z,9.07
2022-10-20T06:39:36.862Z,12.98
2022-10-20T06:42:09.538Z,13.80
2022-10-20T06:44:45.778Z,6.07
2022-10-20T06:47:12.986Z,5.18
2022-10-20T06:49:40.147Z,4.90
2022-10-20T06:52:13.752Z,10.07
2022-10-20T06:54:40.839Z,8.32
2022-10-20T06:57:08.103Z,3.83
2022-10-20T06:59:41.842Z,3.80
2022-10-20T07:02:11.133Z,4.50
2022-10-20T07:04:44.746Z,4.50
2022-10-20T07:07:11.843Z,3.42
2022-10-20T07:09:45.762Z,3.60
2022-10-20T07:12:13.010Z,4.40
2022-10-20T07:14:46.854Z,4.65
2022-10-20T07:17:14.056Z,4.63
2022-10-20T07:19:53.804Z,4.05
2022-10-20T07:22:20.900Z,4.32
2022-10-20T07:24:48.080Z,3.72
2022-10-20T07:27:38.067Z,3.33
2022-10-20T07:30:05.368Z,3.90
2022-10-20T07:32:43.970Z,4.22
2022-10-20T07:35:11.058Z,4.13
2022-10-20T07:37:38.707Z,2.92
2022-10-20T07:40:13.072Z,3.83
2022-10-20T07:42:40.290Z,4.03
2022-10-20T07:45:07.817Z,3.58
2022-10-20T07:50:13.031Z,3.92
2022-10-20T07:55:33.445Z,4.10
2022-10-20T07:58:07.867Z,4.40
2022-10-20T08:00:35.222Z,3.78
2022-10-20T08:03:02.411Z,4.07
2022-10-20T08:05:35.774Z,4.03
2022-10-20T08:08:02.936Z,4.57
2022-10-20T08:10:30.161Z,4.00
2022-10-20T08:13:04.827Z,3.40
2022-10-20T08:15:40.326Z,3.95
2022-10-20T08:18:20.976Z,4.63
2022-10-20T08:20:48.295Z,4.28
2022-10-20T08:23:17.699Z,3.83
2022-10-20T08:25:51.790Z,4.43
2022-10-20T08:28:21.150Z,4.65
2022-10-20T08:30:57.996Z,4.20
2022-10-20T08:33:25.138Z,4.20
2022-10-20T08:35:52.406Z,4.50
2022-10-20T08:38:25.792Z,4.55
2022-10-20T08:40:53.009Z,4.53
2022-10-20T08:43:27.831Z,4.50
2022-10-20T08:45:54.924Z,3.58
2022-10-20T08:51:21.768Z,3.28
2022-10-20T08:53:56.674Z,3.22
2022-10-20T08:56:34.782Z,2.70
2022-10-20T08:59:09.710Z,3.17
2022-10-20T09:01:37.189Z,3.22
2022-10-20T09:06:38.782Z,2.88
2022-10-20T09:09:05.957Z,2.35
2022-10-20T09:11:43.875Z,2.80
2022-10-20T09:14:14.666Z,2.70
2022-10-20T09:16:59.787Z,2.00
2022-10-20T09:19:47.716Z,2.10
2022-10-20T09:22:21.882Z,1.92
2022-10-20T09:24:49.896Z,1.95
2022-10-20T09:27:45.911Z,2.10
2022-10-20T09:30:18.141Z,2.10
2022-10-20T09:32:52.958Z,2.25
2022-10-20T09:35:21.591Z,1.65
2022-10-20T09:37:59.781Z,2.03
2022-10-20T09:40:38.302Z,1.60
2022-10-20T09:43:22.795Z,1.58
2022-10-20T09:45:54.273Z,1.55
2022-10-20T09:48:45.886Z,1.52
2022-10-20T09:51:17.682Z,1.90
2022-10-20T09:53:57.779Z,1.42
2022-10-20T09:56:29.676Z,1.00
2022-10-20T09:59:04.874Z,1.10
2022-10-20T10:01:32.136Z,1.20
2022-10-20T10:04:01.936Z,1.10
2022-10-20T10:06:44.807Z,1.15
2022-10-20T10:12:06.996Z,1.30
2022-10-20T10:15:16.748Z,1.38
2022-10-20T10:17:50.848Z,1.10
2022-10-20T10:20:43.703Z,1.13
2022-10-20T10:23:17.650Z,0.90
2022-10-20T10:25:51.697Z,1.30
2022-10-20T10:28:29.254Z,1.10
2022-10-20T10:31:18.890Z,0.98
2022-10-20T10:33:46.547Z,1.35
2022-10-20T10:36:46.757Z,1.23
2022-10-20T10:39:15.236Z,0.98
2022-10-20T10:42:07.724Z,1.02
2022-10-20T10:44:47.698Z,1.27
2022-10-20T10:47:35.356Z,1.10
2022-10-20T10:50:08.248Z,1.20
2022-10-20T10:52:53.869Z,0.95
2022-10-20T10:55:47.186Z,1.35
2022-10-20T10:58:22.839Z,1.30
2022-10-20T11:01:08.703Z,1.50
2022-10-20T11:03:51.753Z,1.00
2022-10-20T11:06:42.611Z,0.82
2022-10-20T11:12:32.875Z,1.00
2022-10-20T11:15:07.884Z,1.00
2022-10-20T11:17:40.973Z,0.70
2022-10-20T11:20:21.744Z,1.20
2022-10-20T11:22:52.035Z,0.93
2022-10-20T11:25:28.737Z,0.75
2022-10-20T11:28:04.835Z,0.65
2022-10-20T11:30:40.731Z,0.90
2022-10-20T11:33:21.870Z,0.80
2022-10-20T11:35:52.257Z,0.75
2022-10-20T11:38:29.823Z,1.00
2022-10-20T11:41:00.087Z,1.05
2022-10-20T11:43:42.894Z,0.88
2022-10-20T11:46:12.749Z,0.68
2022-10-20T11:48:46.884Z,0.85
2022-10-20T11:51:35.739Z,0.82
2022-10-20T11:56:51.766Z,1.02
2022-10-20T11:59:44.817Z,0.95
2022-10-20T12:02:27.871Z,0.85
2022-10-20T12:05:13.885Z,0.80
2022-10-20T12:08:17.416Z,0.90
2022-10-20T12:11:10.847Z,1.08
2022-10-20T12:13:56.578Z,1.20
2022-10-20T12:16:48.881Z,0.93
2022-10-20T12:19:37.750Z,0.98
2022-10-20T12:24:44.773Z,0.95
2022-10-20T12:27:12.019Z,1.10
2022-10-20T12:29:39.239Z,1.20
2022-10-20T12:38:23.931Z,0.93
2022-10-20T12:41:01.769Z,1.25
2022-10-20T12:43:37.083Z,0.80
2022-10-20T12:46:13.786Z,0.95
2022-10-20T12:48:43.877Z,1.00
2022-10-20T12:51:29.753Z,1.00
2022-10-20T12:53:59.888Z,0.70
2022-10-20T12:56:34.749Z,0.80
2022-10-20T12:59:08.255Z,0.70
2022-10-20T13:02:00.879Z,0.80
2022-10-20T13:04:46.842Z,0.70
2022-10-20T13:07:20.890Z,0.43
2022-10-20T13:10:00.330Z,0.63
2022-10-20T13:12:46.802Z,0.50
2022-10-20T13:15:22.956Z,0.50
2022-10-20T13:18:02.795Z,0.68
2022-10-20T13:20:42.897Z,0.60
2022-10-20T13:23:23.749Z,0.73
2022-10-20T13:26:01.890Z,0.60
2022-10-20T13:28:30.023Z,0.70
2022-10-20T13:31:04.085Z,0.77
2022-10-20T13:34:04.654Z,0.50
2022-10-20T13:39:18.083Z,0.50
2022-10-20T13:41:55.882Z,0.70
2022-10-20T13:44:32.089Z,0.77
2022-10-20T13:47:15.023Z,0.47
2022-10-20T13:50:06.206Z,0.70
2022-10-20T13:52:45.867Z,0.65
2022-10-20T13:55:21.801Z,0.65
2022-10-20T13:57:57.987Z,0.55
2022-10-20T14:00:36.499Z,0.60
2022-10-20T14:03:11.924Z,0.80
2022-10-20T14:05:39.649Z,0.50
2022-10-20T14:08:11.029Z,0.50
2022-10-20T14:10:50.977Z,0.80
2022-10-20T14:13:26.840Z,0.57
2022-10-20T14:16:00.684Z,0.60
2022-10-20T14:18:38.777Z,0.45
2022-10-20T14:21:14.052Z,0.70
2022-10-20T14:23:48.785Z,0.60
2022-10-20T14:26:20.484Z,0.55
2022-10-20T14:28:55.812Z,0.40
2022-10-20T14:31:24.109Z,0.47
2022-10-20T14:33:52.176Z,0.60
2022-10-20T14:36:30.128Z,1.40
2022-10-20T14:39:01.163Z,2.22
2022-10-20T14:41:35.848Z,2.63
2022-10-20T14:44:12.212Z,1.08
2022-10-20T14:46:53.225Z,0.80
2022-10-20T14:49:38.585Z,1.05
2022-10-20T14:52:16.512Z,0.90
2022-10-20T14:54:47.071Z,0.60
2022-10-20T14:57:21.291Z,0.55
2022-10-20T14:59:51.301Z,0.90
2022-10-20T15:02:27.972Z,0.50
2022-10-20T15:04:55.195Z,0.93
2022-10-20T15:07:28.947Z,0.77
2022-10-20T15:10:01.587Z,0.60
2022-10-20T15:12:40.237Z,0.57
2022-10-20T15:15:27.880Z,0.85
2022-10-20T15:18:14.150Z,0.80
2022-10-20T15:20:48.950Z,0.90
2022-10-20T15:23:23.896Z,0.90
2022-10-20T15:26:05.125Z,0.80
2022-10-20T15:28:41.946Z,0.90
2022-10-20T15:31:21.391Z,0.52
2022-10-20T15:33:55.922Z,0.40
2022-10-20T15:36:28.325Z,0.50
2022-10-20T15:39:02.916Z,0.68
2022-10-20T15:41:31.376Z,0.60
2022-10-20T15:44:11.819Z,0.88
2022-10-20T15:46:38.983Z,0.68
2022-10-20T15:49:06.293Z,0.80
2022-10-20T15:51:41.169Z,0.50
2022-10-20T15:54:08.354Z,0.80
2022-10-20T15:56:35.790Z,0.88
2022-10-20T15:59:09.953Z,0.93
2022-10-20T16:01:37.240Z,0.73
2022-10-20T16:04:36.126Z,1.10
2022-10-20T16:07:03.431Z,0.80
2022-10-20T16:09:40.946Z,1.00
2022-10-20T16:12:08.151Z,0.90
2022-10-20T16:14:37.999Z,1.13
2022-10-20T16:17:11.923Z,0.90
2022-10-20T16:19:45.884Z,0.75
2022-10-20T16:22:19.909Z,1.00
2022-10-20T16:24:47.613Z,0.70
2022-10-20T16:27:21.960Z,1.20
2022-10-20T16:29:50.754Z,0.95
2022-10-20T16:32:17.899Z,1.10
2022-10-20T16:34:51.921Z,0.98
2022-10-20T16:37:19.071Z,1.10
2022-10-20T16:39:52.952Z,0.90
2022-10-20T16:42:20.155Z,1.00
2022-10-20T16:44:47.388Z,1.00
2022-10-20T16:47:20.991Z,1.17
2022-10-20T16:49:48.166Z,0.85
2022-10-20T16:52:15.290Z,1.08
2022-10-20T16:54:48.912Z,1.20
2022-10-20T16:57:16.337Z,1.10
2022-10-20T16:59:51.969Z,0.88
2022-10-20T17:02:19.596Z,0.80
2022-10-20T17:04:56.900Z,1.20
2022-10-20T17:07:25.483Z,0.83
2022-10-20T17:09:59.201Z,1.20
2022-10-20T17:12:26.450Z,1.08
2022-10-20T17:14:53.566Z,0.82
2022-10-20T17:17:27.027Z,0.75
2022-10-20T17:20:13.840Z,1.30
2022-10-20T17:22:48.050Z,1.48
2022-10-20T17:25:15.233Z,1.00
2022-10-20T17:27:42.354Z,1.05
2022-10-20T17:30:17.982Z,1.20
2022-10-20T17:32:45.498Z,0.95
2022-10-20T17:35:20.971Z,0.98
2022-10-20T17:37:48.154Z,1.15
2022-10-20T17:40:15.550Z,1.33
2022-10-20T17:42:48.963Z,1.15
2022-10-20T17:45:16.180Z,1.83
2022-10-20T17:47:49.970Z,0.93
2022-10-20T17:50:17.140Z,1.00
2022-10-20T17:52:44.323Z,1.20
2022-10-20T17:55:18.082Z,0.93
2022-10-20T17:57:45.436Z,1.10
2022-10-20T18:00:19.123Z,1.35
2022-10-20T18:02:57.939Z,1.23
2022-10-20T18:05:31.925Z,1.30
2022-10-20T18:08:12.984Z,1.60
2022-10-20T18:10:43.951Z,1.23
2022-10-20T18:13:11.667Z,1.33
2022-10-20T18:15:49.928Z,1.48
2022-10-20T18:21:01.051Z,1.20
2022-10-20T18:23:35.871Z,1.40
2022-10-20T18:26:29.465Z,1.10
2022-10-20T18:29:02.871Z,0.90
2022-10-20T18:31:31.476Z,1.52
2022-10-20T18:34:04.247Z,1.13
2022-10-20T18:36:43.411Z,1.70
2022-10-20T18:39:19.877Z,1.50
2022-10-20T18:41:47.280Z,1.45
2022-10-20T18:44:21.920Z,1.23
2022-10-20T18:46:49.332Z,1.25
2022-10-20T18:49:24.899Z,1.27
2022-10-20T18:51:52.347Z,1.70
2022-10-20T18:54:19.660Z,1.83
2022-10-20T18:56:52.867Z,2.35
2022-10-20T18:59:20.369Z,1.45
2022-10-20T19:01:54.920Z,1.60
2022-10-20T19:04:22.289Z,1.40
2022-10-20T19:06:49.615Z,1.30
2022-10-20T19:09:25.243Z,1.33
2022-10-20T19:12:00.940Z,1.70
2022-10-20T19:14:34.973Z,1.55
2022-10-20T19:17:02.354Z,1.40
2022-10-20T19:19:43.006Z,1.23
2022-10-20T19:22:10.187Z,2.28
2022-10-20T19:24:40.451Z,1.42
2022-10-20T19:27:26.036Z,1.30
2022-10-20T19:29:55.811Z,1.08
2022-10-20T19:32:30.037Z,1.25
2022-10-20T19:34:57.206Z,1.50
2022-10-20T19:37:31.027Z,1.90
2022-10-20T19:39:58.325Z,1.30
2022-10-20T19:42:34.655Z,1.88
2022-10-20T19:45:02.028Z,1.88
2022-10-20T19:47:42.148Z,1.60
2022-10-20T19:50:09.380Z,1.75
2022-10-20T19:52:36.802Z,1.83
2022-10-20T19:57:38.190Z,1.70
2022-10-20T20:00:05.515Z,1.50
2022-10-20T20:02:39.601Z,1.77
2022-10-20T20:05:07.128Z,1.77
2022-10-20T20:07:41.385Z,1.35
2022-10-20T20:10:10.165Z,1.75
2022-10-20T20:12:37.284Z,1.73
2022-10-20T20:15:11.033Z,1.83
2022-10-20T20:17:38.472Z,1.70
2022-10-20T20:20:26.179Z,1.80
2022-10-20T20:22:53.335Z,2.22
2022-10-20T20:25:20.472Z,1.35
2022-10-20T20:27:54.019Z,1.95
2022-10-20T20:30:21.228Z,1.70
2022-10-20T20:32:55.024Z,1.80
2022-10-20T20:35:22.208Z,2.10
2022-10-20T20:37:49.351Z,2.00
2022-10-20T20:43:21.010Z,1.55
2022-10-20T20:45:54.903Z,1.83
2022-10-20T20:48:22.355Z,1.80
2022-10-20T20:51:04.021Z,1.10
2022-10-20T20:53:31.322Z,2.00
2022-10-20T20:55:59.898Z,1.40
2022-10-20T20:58:35.190Z,1.80
2022-10-20T21:01:04.366Z,1.70
2022-10-20T21:03:31.663Z,1.95
2022-10-20T21:06:06.136Z,1.85
2022-10-20T21:08:34.091Z,1.50
2022-10-20T21:11:05.567Z,1.45
2022-10-20T21:13:41.063Z,1.70
2022-10-20T21:16:08.340Z,1.50
2022-10-20T21:18:35.504Z,1.95
2022-10-20T21:21:16.255Z,1.77
2022-10-20T21:23:43.604Z,2.30
2022-10-20T21:26:11.498Z,1.83
2022-10-20T21:28:44.999Z,1.17
2022-10-20T21:31:13.559Z,1.20
2022-10-20T21:33:41.135Z,1.15
2022-10-20T21:38:43.119Z,2.00
2022-10-20T21:41:10.182Z,1.90
2022-10-20T21:43:45.104Z,1.92
2022-10-20T21:46:16.972Z,2.13
2022-10-20T21:48:44.767Z,2.55
2022-10-20T21:51:22.958Z,2.20
2022-10-20T21:56:32.773Z,1.80
2022-10-20T21:59:05.920Z,2.28
2022-10-20T22:01:34.679Z,2.08
2022-10-20T22:04:07.890Z,2.22
2022-10-20T22:06:37.166Z,1.73
2022-10-20T22:09:10.990Z,2.00
2022-10-20T22:11:39.630Z,2.28
2022-10-20T22:14:07.058Z,2.10
2022-10-20T22:16:41.980Z,2.42
2022-10-20T22:19:12.030Z,1.77
2022-10-20T22:21:53.113Z,1.60
2022-10-20T22:24:20.772Z,1.98
2022-10-20T22:29:22.079Z,1.85
2022-10-20T22:31:49.713Z,1.92
2022-10-20T22:36:50.454Z,2.25
2022-10-20T22:39:17.548Z,2.17
2022-10-20T22:41:51.009Z,2.53
2022-10-20T22:44:18.255Z,2.38
2022-10-20T22:46:52.220Z,2.03
2022-10-20T22:49:19.406Z,2.58
2022-10-20T22:51:46.544Z,2.40
2022-10-20T22:54:20.008Z,2.45
2022-10-20T22:56:47.254Z,2.15
2022-10-20T22:59:14.350Z,2.40
2022-10-20T23:01:48.016Z,2.13
2022-10-20T23:04:15.228Z,2.45
2022-10-20T23:06:49.058Z,2.58
2022-10-20T23:09:16.387Z,2.22
2022-10-20T23:11:50.040Z,2.50
2022-10-20T23:14:17.314Z,2.20
2022-10-20T23:16:58.053Z,2.20
2022-10-20T23:19:32.025Z,2.30
2022-10-20T23:22:06.141Z,2.40
2022-10-20T23:24:33.363Z,2.75
2022-10-20T23:27:00.501Z,2.38
2022-10-20T23:29:43.087Z,2.50
2022-10-20T23:32:10.271Z,2.30
2022-10-20T23:34:44.051Z,2.50
2022-10-20T23:37:11.327Z,2.40
2022-10-20T23:39:38.479Z,2.20
2022-10-20T23:42:11.901Z,2.60
2022-10-20T23:44:39.184Z,3.22
2022-10-20T23:47:12.907Z,2.83
2022-10-20T23:49:39.990Z,2.85
2022-10-20T23:52:14.139Z,1.90
2022-10-20T23:54:41.247Z,2.50
2022-10-20T23:57:08.462Z,3.03
2022-10-20T23:59:42.095Z,2.63
